MKJP/KIN METAR and TAF weather

Enter ICAO airport designator
Station Type Date Time Source
MKJP METAR 2020/09/24 11:00 UTC NOAA

MKJP 241100Z 33007KT 9999 -SHRA FEW020 BKN022CB 26/24 Q1012 RETS


Station Type Date Time Source
MKJP Decoded METAR 2020/09/24 11:00 UTC NOAA

Kingston / Norman Manley, Jamaica (MKJP) 17-56N 076-47W 14M
Sep 24, 2020 - 07:00 AM EDT / 2020.09.24 1100 UTC
Wind: from the NNW (330 degrees) at 8 MPH (7 KT):0
Visibility: greater than 7 mile(s):0
Sky conditions: mostly cloudy
Weather: light rain showers; Cumulonimbus clouds observed
Temperature: 78 F (26 C)
Dew Point: 75 F (24 C)
Relative Humidity: 88%
Pressure (altimeter): 29.88 in. Hg (1012 hPa)
ob: MKJP 241100Z 33007KT 9999 -SHRA FEW020 BKN022CB 26/24 Q1012 RETS
cycle: 11

Station Type Date Time Source
MKJP TAF 2020/09/24 12:21 UTC NOAA

TAF MKJP 241115Z 2412/2512 35007KT 9999 SCT020 SCT022CB
TEMPO 2412/2415 5000 TSRA BKN018CB
BECMG 2414/2416 14020KT
TEMPO 2417/2424 5000 TSRA BKN018 BKN020CB
BECMG 2503/2505 36005KT

Example: see airport list